VLG7339 GMMI-LEBL
Flight info
| Callsign | VLG7339 |
|---|---|
| Flight time | 1h 49m |
| Altitude | 34000 |
| Route | ESS UN871 OSDAM UM985 BARPA DCT XAVIR DCT PIMOS DCT RIXUR DCT PEPAS DCT ARPEX DCT KOSEL DCT BUDIT DCT ETURA DCT TOSTO DCT OLPOS DCT BEGOX DCT VLC L34 CASIM DCT MATEX |
| Aircraft | A321/M-SDE3FGHIRWY/LB1 |
Departure
| Time | 2026-05-05 21:44 |
|---|---|
| Airport | Essaouira-Mogador Airport (GMMI) |
Arrival
| Time | 2026-05-05 23:34 |
|---|---|
| Airport | Josep Tarradellas Barcelona-El Prat Airport (LEBL) |
| Time | Latitude | Longitude | Altitude | Speed | Heading |
|---|---|---|---|---|---|
| 2026-05-05 21:19 | 31.40375 | -9.68777 | 393 ft | 0 kts | 249° |
| 2026-05-05 21:36 | 31.40378 | -9.68769 | 393 ft | 1 kts | 249° |
| 2026-05-05 21:36 | 31.40382 | -9.68755 | 393 ft | 2 kts | 249° |
| 2026-05-05 21:37 | 31.40388 | -9.68739 | 393 ft | 2 kts | 249° |
| 2026-05-05 21:37 | 31.40393 | -9.68722 | 393 ft | 2 kts | 216° |
| 2026-05-05 21:37 | 31.40406 | -9.68713 | 393 ft | 2 kts | 182° |
| 2026-05-05 21:37 | 31.40416 | -9.68713 | 393 ft | 1 kts | 165° |
| 2026-05-05 21:38 | 31.40417 | -9.68713 | 393 ft | 0 kts | 163° |
| 2026-05-05 21:39 | 31.40415 | -9.68713 | 393 ft | 2 kts | 163° |
| 2026-05-05 21:39 | 31.40351 | -9.68684 | 393 ft | 21 kts | 159° |
| 2026-05-05 21:39 | 31.40206 | -9.68615 | 393 ft | 24 kts | 157° |
| 2026-05-05 21:40 | 31.40106 | -9.68557 | 393 ft | 7 kts | 131° |
| 2026-05-05 21:40 | 31.40084 | -9.68484 | 393 ft | 13 kts | 102° |
| 2026-05-05 21:40 | 31.40035 | -9.68359 | 394 ft | 21 kts | 140° |
| 2026-05-05 21:40 | 31.39883 | -9.68285 | 396 ft | 28 kts | 157° |
| 2026-05-05 21:41 | 31.39755 | -9.68220 | 397 ft | 33 kts | 156° |
| 2026-05-05 21:41 | 31.39525 | -9.68108 | 393 ft | 39 kts | 156° |
| 2026-05-05 21:41 | 31.39248 | -9.67982 | 395 ft | 45 kts | 158° |
| 2026-05-05 21:41 | 31.38950 | -9.67854 | 395 ft | 37 kts | 163° |
| 2026-05-05 21:42 | 31.38845 | -9.67867 | 396 ft | 11 kts | 181° |
| 2026-05-05 21:42 | 31.38826 | -9.67847 | 393 ft | 1 kts | 97° |
| 2026-05-05 21:42 | 31.38837 | -9.67827 | 395 ft | 6 kts | 49° |
| 2026-05-05 21:42 | 31.38899 | -9.67838 | 391 ft | 14 kts | 336° |
| 2026-05-05 21:43 | 31.38943 | -9.67859 | 396 ft | 0 kts | 338° |
| 2026-05-05 21:43 | 31.38954 | -9.67864 | 394 ft | 6 kts | 338° |
| 2026-05-05 21:43 | 31.39035 | -9.67901 | 395 ft | 28 kts | 339° |
| 2026-05-05 21:43 | 31.39518 | -9.68116 | 394 ft | 114 kts | 339° |
| 2026-05-05 21:44 | 31.40473 | -9.68545 | 408 ft | 176 kts | 340° |
| 2026-05-05 21:44 | 31.41650 | -9.69084 | 1026 ft | 186 kts | 340° |
| 2026-05-05 21:44 | 31.42961 | -9.69688 | 1454 ft | 224 kts | 342° |
| 2026-05-05 21:44 | 31.44551 | -9.70393 | 1771 ft | 250 kts | 345° |
| 2026-05-05 21:45 | 31.46257 | -9.70550 | 2647 ft | 247 kts | 14° |
| 2026-05-05 21:45 | 31.47844 | -9.69699 | 3315 ft | 262 kts | 41° |
| 2026-05-05 21:45 | 31.48988 | -9.67954 | 3767 ft | 284 kts | 66° |
| 2026-05-05 21:45 | 31.49652 | -9.65680 | 4214 ft | 307 kts | 74° |
| 2026-05-05 21:46 | 31.50418 | -9.63288 | 4690 ft | 326 kts | 63° |
| 2026-05-05 21:46 | 31.51798 | -9.60995 | 5012 ft | 349 kts | 47° |
| 2026-05-05 21:46 | 31.53631 | -9.59090 | 5703 ft | 358 kts | 37° |
| 2026-05-05 21:46 | 31.55641 | -9.57309 | 6436 ft | 365 kts | 38° |
| 2026-05-05 21:47 | 31.57603 | -9.55366 | 7119 ft | 373 kts | 39° |
| 2026-05-05 21:47 | 31.59575 | -9.53367 | 7906 ft | 377 kts | 39° |
| 2026-05-05 21:47 | 31.61580 | -9.51337 | 8601 ft | 384 kts | 39° |
| 2026-05-05 21:47 | 31.63622 | -9.49283 | 9333 ft | 390 kts | 38° |
| 2026-05-05 21:48 | 31.65708 | -9.47196 | 10014 ft | 397 kts | 38° |
| 2026-05-05 21:48 | 31.67828 | -9.45082 | 10683 ft | 402 kts | 37° |
| 2026-05-05 21:48 | 31.69975 | -9.42946 | 11342 ft | 407 kts | 37° |
| 2026-05-05 21:48 | 31.72158 | -9.40773 | 11973 ft | 414 kts | 37° |
| 2026-05-05 21:49 | 31.74367 | -9.38571 | 12612 ft | 420 kts | 37° |
| 2026-05-05 21:49 | 31.76609 | -9.36335 | 13250 ft | 425 kts | 37° |
| 2026-05-05 21:49 | 31.78873 | -9.34077 | 13855 ft | 431 kts | 37° |
| 2026-05-05 21:49 | 31.81139 | -9.31814 | 14462 ft | 434 kts | 37° |
| 2026-05-05 21:50 | 31.83441 | -9.29511 | 15105 ft | 436 kts | 37° |
| 2026-05-05 21:50 | 31.85791 | -9.27157 | 15711 ft | 440 kts | 37° |
| 2026-05-05 21:50 | 31.88125 | -9.24820 | 16317 ft | 443 kts | 37° |
| 2026-05-05 21:50 | 31.90484 | -9.22454 | 16926 ft | 446 kts | 37° |
| 2026-05-05 21:51 | 31.92854 | -9.20075 | 17532 ft | 449 kts | 37° |
| 2026-05-05 21:51 | 31.95237 | -9.17681 | 18129 ft | 452 kts | 37° |
| 2026-05-05 21:51 | 31.97642 | -9.15264 | 18648 ft | 456 kts | 37° |
| 2026-05-05 21:51 | 32.00061 | -9.12830 | 19154 ft | 459 kts | 37° |
| 2026-05-05 21:52 | 32.04936 | -9.07921 | 20165 ft | 464 kts | 37° |
| 2026-05-05 21:52 | 32.07365 | -9.05473 | 20661 ft | 466 kts | 37° |
| 2026-05-05 21:52 | 32.09839 | -9.02978 | 21171 ft | 469 kts | 37° |
| 2026-05-05 21:53 | 32.12322 | -9.00471 | 21657 ft | 471 kts | 37° |
| 2026-05-05 21:53 | 32.14850 | -8.97917 | 22185 ft | 473 kts | 37° |
| 2026-05-05 21:53 | 32.17349 | -8.95391 | 22671 ft | 475 kts | 37° |
| 2026-05-05 21:53 | 32.19830 | -8.92881 | 23127 ft | 477 kts | 38° |
| 2026-05-05 21:54 | 32.22391 | -8.90288 | 23599 ft | 479 kts | 38° |
| 2026-05-05 21:54 | 32.24892 | -8.87752 | 23942 ft | 483 kts | 38° |
| 2026-05-05 21:54 | 32.27446 | -8.85159 | 24260 ft | 486 kts | 37° |
| 2026-05-05 21:54 | 32.30021 | -8.82543 | 24573 ft | 489 kts | 37° |
| 2026-05-05 21:55 | 32.32611 | -8.79910 | 24871 ft | 493 kts | 37° |
| 2026-05-05 21:55 | 32.35215 | -8.77260 | 25184 ft | 496 kts | 37° |
| 2026-05-05 21:55 | 32.37833 | -8.74593 | 25495 ft | 498 kts | 37° |
| 2026-05-05 21:55 | 32.40465 | -8.71910 | 25794 ft | 501 kts | 37° |
| 2026-05-05 21:56 | 32.43108 | -8.69214 | 26091 ft | 503 kts | 37° |
| 2026-05-05 21:56 | 32.45767 | -8.66501 | 26398 ft | 505 kts | 37° |
| 2026-05-05 21:56 | 32.48432 | -8.63779 | 26693 ft | 507 kts | 37° |
| 2026-05-05 21:56 | 32.51102 | -8.61049 | 26968 ft | 508 kts | 37° |
| 2026-05-05 21:57 | 32.53780 | -8.58310 | 27196 ft | 510 kts | 38° |
| 2026-05-05 21:57 | 32.56468 | -8.55558 | 27405 ft | 512 kts | 38° |
| 2026-05-05 21:57 | 32.59171 | -8.52788 | 27603 ft | 513 kts | 38° |
| 2026-05-05 21:57 | 32.61868 | -8.50023 | 27767 ft | 514 kts | 38° |
| 2026-05-05 21:58 | 32.64576 | -8.47243 | 27928 ft | 515 kts | 38° |
| 2026-05-05 21:58 | 32.67289 | -8.44456 | 28081 ft | 516 kts | 38° |
| 2026-05-05 21:58 | 32.70002 | -8.41666 | 28279 ft | 515 kts | 38° |
| 2026-05-05 21:58 | 32.72706 | -8.38883 | 28466 ft | 515 kts | 38° |
| 2026-05-05 21:59 | 32.75409 | -8.36099 | 28648 ft | 514 kts | 38° |
| 2026-05-05 21:59 | 32.78104 | -8.33322 | 28860 ft | 514 kts | 38° |
| 2026-05-05 21:59 | 32.80815 | -8.30525 | 29040 ft | 513 kts | 38° |
| 2026-05-05 21:59 | 32.83510 | -8.27744 | 29221 ft | 513 kts | 38° |
| 2026-05-05 22:00 | 32.86237 | -8.24927 | 29404 ft | 512 kts | 38° |
| 2026-05-05 22:00 | 32.88923 | -8.22149 | 29604 ft | 512 kts | 38° |
| 2026-05-05 22:00 | 32.91609 | -8.19370 | 29790 ft | 511 kts | 38° |
| 2026-05-05 22:00 | 32.94289 | -8.16595 | 29999 ft | 511 kts | 38° |
| 2026-05-05 22:01 | 32.96966 | -8.13821 | 30201 ft | 510 kts | 38° |
| 2026-05-05 22:01 | 32.99638 | -8.11049 | 30359 ft | 510 kts | 38° |
| 2026-05-05 22:01 | 33.02310 | -8.08274 | 30536 ft | 510 kts | 38° |
| 2026-05-05 22:01 | 33.04980 | -8.05498 | 30709 ft | 510 kts | 38° |
| 2026-05-05 22:02 | 33.07655 | -8.02716 | 30896 ft | 510 kts | 38° |
| 2026-05-05 22:02 | 33.10321 | -7.99941 | 31079 ft | 510 kts | 38° |
| 2026-05-05 22:02 | 33.12995 | -7.97155 | 31264 ft | 510 kts | 38° |
| 2026-05-05 22:02 | 33.15666 | -7.94369 | 31447 ft | 510 kts | 38° |
| 2026-05-05 22:03 | 33.18336 | -7.91581 | 31630 ft | 510 kts | 38° |
| 2026-05-05 22:03 | 33.20969 | -7.88830 | 31812 ft | 510 kts | 38° |
| 2026-05-05 22:03 | 33.23634 | -7.86042 | 32002 ft | 509 kts | 38° |
| 2026-05-05 22:03 | 33.26298 | -7.83254 | 32198 ft | 509 kts | 38° |
| 2026-05-05 22:04 | 33.28956 | -7.80469 | 32390 ft | 508 kts | 38° |
| 2026-05-05 22:04 | 33.31612 | -7.77685 | 32574 ft | 508 kts | 38° |
| 2026-05-05 22:04 | 33.34263 | -7.74904 | 32778 ft | 507 kts | 38° |
| 2026-05-05 22:04 | 33.36906 | -7.72129 | 32987 ft | 506 kts | 38° |
| 2026-05-05 22:05 | 33.39550 | -7.69351 | 33203 ft | 505 kts | 38° |
| 2026-05-05 22:05 | 33.42190 | -7.66575 | 33396 ft | 504 kts | 38° |
| 2026-05-05 22:05 | 33.44816 | -7.63811 | 33605 ft | 503 kts | 38° |
| 2026-05-05 22:05 | 33.47433 | -7.61055 | 33805 ft | 502 kts | 38° |
| 2026-05-05 22:06 | 33.50061 | -7.58285 | 33966 ft | 501 kts | 38° |
| 2026-05-05 22:06 | 33.52674 | -7.55528 | 34088 ft | 502 kts | 38° |
| 2026-05-05 22:06 | 33.55294 | -7.52761 | 34075 ft | 501 kts | 38° |
| 2026-05-05 22:07 | 33.60553 | -7.47202 | 34076 ft | 501 kts | 38° |
| 2026-05-05 22:07 | 33.65746 | -7.41705 | 34056 ft | 500 kts | 38° |
| 2026-05-05 22:08 | 33.70991 | -7.36143 | 34051 ft | 499 kts | 38° |
| 2026-05-05 22:08 | 33.76149 | -7.30665 | 34067 ft | 498 kts | 39° |
| 2026-05-05 22:09 | 33.81371 | -7.25108 | 34044 ft | 497 kts | 39° |
| 2026-05-05 22:09 | 33.86545 | -7.19591 | 34044 ft | 497 kts | 39° |
| 2026-05-05 22:10 | 33.91714 | -7.14071 | 34059 ft | 496 kts | 39° |
| 2026-05-05 22:10 | 33.96866 | -7.08559 | 34062 ft | 496 kts | 39° |
| 2026-05-05 22:11 | 34.02013 | -7.03044 | 34055 ft | 495 kts | 39° |
| 2026-05-05 22:11 | 34.07159 | -6.97519 | 34058 ft | 494 kts | 40° |
| 2026-05-05 22:12 | 34.12295 | -6.91996 | 34049 ft | 494 kts | 40° |
| 2026-05-05 22:12 | 34.17427 | -6.86468 | 34051 ft | 495 kts | 40° |
| 2026-05-05 22:13 | 34.22558 | -6.80931 | 34044 ft | 495 kts | 40° |
| 2026-05-05 22:13 | 34.26826 | -6.76318 | 34048 ft | 495 kts | 40° |
| 2026-05-05 22:14 | 34.31956 | -6.70766 | 34042 ft | 495 kts | 40° |
| 2026-05-05 22:14 | 34.37087 | -6.65202 | 34040 ft | 495 kts | 40° |
| 2026-05-05 22:15 | 34.42212 | -6.59633 | 34039 ft | 495 kts | 40° |
| 2026-05-05 22:15 | 34.47340 | -6.54051 | 34038 ft | 496 kts | 40° |
| 2026-05-05 22:16 | 34.52447 | -6.48483 | 34035 ft | 496 kts | 40° |
| 2026-05-05 22:16 | 34.57601 | -6.42855 | 34035 ft | 496 kts | 40° |
| 2026-05-05 22:17 | 34.62725 | -6.37251 | 34039 ft | 496 kts | 40° |
| 2026-05-05 22:17 | 34.67858 | -6.31627 | 34033 ft | 497 kts | 40° |
| 2026-05-05 22:18 | 34.72985 | -6.26000 | 34034 ft | 497 kts | 40° |
| 2026-05-05 22:18 | 34.78121 | -6.20352 | 34035 ft | 498 kts | 40° |
| 2026-05-05 22:19 | 34.83252 | -6.14701 | 34036 ft | 498 kts | 40° |
| 2026-05-05 22:19 | 34.88399 | -6.09022 | 34037 ft | 499 kts | 40° |
| 2026-05-05 22:20 | 34.93534 | -6.03347 | 34040 ft | 499 kts | 40° |
| 2026-05-05 22:20 | 34.98682 | -5.97647 | 34037 ft | 500 kts | 40° |
| 2026-05-05 22:21 | 35.03838 | -5.91928 | 34040 ft | 501 kts | 40° |
| 2026-05-05 22:21 | 35.08984 | -5.86207 | 34038 ft | 501 kts | 40° |
| 2026-05-05 22:22 | 35.14138 | -5.80467 | 34040 ft | 502 kts | 40° |
| 2026-05-05 22:22 | 35.19303 | -5.74707 | 34035 ft | 503 kts | 40° |
| 2026-05-05 22:23 | 35.24467 | -5.68939 | 34036 ft | 503 kts | 40° |
| 2026-05-05 22:23 | 35.29634 | -5.63156 | 34033 ft | 504 kts | 40° |
| 2026-05-05 22:24 | 35.34841 | -5.57318 | 34022 ft | 504 kts | 40° |
| 2026-05-05 22:24 | 35.40009 | -5.51513 | 34007 ft | 505 kts | 40° |
| 2026-05-05 22:25 | 35.45188 | -5.45685 | 33999 ft | 505 kts | 40° |
| 2026-05-05 22:25 | 35.50372 | -5.39841 | 33993 ft | 506 kts | 39° |
| 2026-05-05 22:26 | 35.55555 | -5.33987 | 33991 ft | 507 kts | 39° |
| 2026-05-05 22:26 | 35.60750 | -5.28110 | 33995 ft | 507 kts | 39° |
| 2026-05-05 22:27 | 35.65937 | -5.22231 | 33990 ft | 508 kts | 39° |
| 2026-05-05 22:27 | 35.71136 | -5.16327 | 33990 ft | 509 kts | 39° |
| 2026-05-05 22:28 | 35.76376 | -5.10365 | 33987 ft | 509 kts | 39° |
| 2026-05-05 22:28 | 35.81488 | -5.04539 | 33990 ft | 510 kts | 39° |
| 2026-05-05 22:29 | 35.86694 | -4.98594 | 34001 ft | 510 kts | 39° |
| 2026-05-05 22:29 | 35.91900 | -4.92639 | 34000 ft | 511 kts | 39° |
| 2026-05-05 22:30 | 35.97152 | -4.86621 | 33998 ft | 511 kts | 39° |
| 2026-05-05 22:30 | 36.02369 | -4.80629 | 33993 ft | 512 kts | 39° |
| 2026-05-05 22:31 | 36.07585 | -4.74629 | 33988 ft | 512 kts | 39° |
| 2026-05-05 22:31 | 36.12803 | -4.68613 | 33982 ft | 513 kts | 39° |
| 2026-05-05 22:32 | 36.18023 | -4.62583 | 33974 ft | 512 kts | 39° |
| 2026-05-05 22:32 | 36.23231 | -4.56556 | 33975 ft | 513 kts | 39° |
| 2026-05-05 22:33 | 36.28441 | -4.50516 | 33966 ft | 513 kts | 39° |
| 2026-05-05 22:33 | 36.33655 | -4.44460 | 33966 ft | 514 kts | 39° |
| 2026-05-05 22:34 | 36.38868 | -4.38392 | 33961 ft | 514 kts | 39° |
| 2026-05-05 22:34 | 36.44084 | -4.32309 | 33958 ft | 515 kts | 39° |
| 2026-05-05 22:35 | 36.49302 | -4.26213 | 33942 ft | 515 kts | 39° |
| 2026-05-05 22:35 | 36.54528 | -4.20094 | 33955 ft | 516 kts | 39° |
| 2026-05-05 22:36 | 36.59752 | -4.13966 | 33944 ft | 517 kts | 39° |
| 2026-05-05 22:36 | 36.64985 | -4.07815 | 33949 ft | 518 kts | 39° |
| 2026-05-05 22:37 | 36.70256 | -4.01609 | 33945 ft | 518 kts | 39° |
| 2026-05-05 22:37 | 36.75494 | -3.95428 | 33948 ft | 519 kts | 39° |
| 2026-05-05 22:38 | 36.80741 | -3.89224 | 33949 ft | 519 kts | 39° |
| 2026-05-05 22:38 | 36.85983 | -3.83016 | 33970 ft | 521 kts | 39° |
| 2026-05-05 22:39 | 36.91279 | -3.76730 | 33983 ft | 522 kts | 39° |
| 2026-05-05 22:39 | 36.96585 | -3.70416 | 33999 ft | 523 kts | 39° |
| 2026-05-05 22:40 | 37.01858 | -3.64132 | 34007 ft | 524 kts | 39° |
| 2026-05-05 22:40 | 37.07170 | -3.57788 | 34012 ft | 524 kts | 39° |
| 2026-05-05 22:41 | 37.12441 | -3.51483 | 34013 ft | 525 kts | 39° |
| 2026-05-05 22:41 | 37.17714 | -3.45159 | 34014 ft | 524 kts | 39° |
| 2026-05-05 22:42 | 37.23023 | -3.38779 | 34017 ft | 525 kts | 39° |
| 2026-05-05 22:42 | 37.27441 | -3.33460 | 34015 ft | 525 kts | 40° |
| 2026-05-05 22:43 | 37.32715 | -3.27102 | 34018 ft | 525 kts | 40° |
| 2026-05-05 22:43 | 37.38007 | -3.20706 | 34018 ft | 524 kts | 40° |
| 2026-05-05 22:44 | 37.43263 | -3.14343 | 34022 ft | 525 kts | 40° |
| 2026-05-05 22:44 | 37.48526 | -3.07957 | 34017 ft | 525 kts | 40° |
| 2026-05-05 22:45 | 37.53769 | -3.01581 | 34011 ft | 524 kts | 40° |
| 2026-05-05 22:45 | 37.59019 | -2.95184 | 34014 ft | 525 kts | 40° |
| 2026-05-05 22:46 | 37.64293 | -2.88743 | 34009 ft | 524 kts | 40° |
| 2026-05-05 22:46 | 37.69529 | -2.82336 | 34009 ft | 525 kts | 40° |
| 2026-05-05 22:47 | 37.74778 | -2.75899 | 34006 ft | 525 kts | 40° |
| 2026-05-05 22:47 | 37.80052 | -2.69419 | 34012 ft | 526 kts | 40° |
| 2026-05-05 22:48 | 37.85294 | -2.62966 | 34015 ft | 526 kts | 40° |
| 2026-05-05 22:48 | 37.90533 | -2.56501 | 34014 ft | 526 kts | 40° |
| 2026-05-05 22:49 | 37.95771 | -2.50026 | 34016 ft | 527 kts | 40° |
| 2026-05-05 22:49 | 38.01015 | -2.43533 | 34007 ft | 527 kts | 40° |
| 2026-05-05 22:50 | 38.06258 | -2.37031 | 34016 ft | 528 kts | 40° |
| 2026-05-05 22:50 | 38.11545 | -2.30458 | 34025 ft | 528 kts | 40° |
| 2026-05-05 22:51 | 38.16791 | -2.23924 | 34026 ft | 529 kts | 40° |
| 2026-05-05 22:51 | 38.21842 | -2.17096 | 34007 ft | 532 kts | 45° |
| 2026-05-05 22:51 | 38.24419 | -2.13780 | 34017 ft | 517 kts | 34° |
| 2026-05-05 22:52 | 38.27266 | -2.10912 | 34011 ft | 500 kts | 32° |
| 2026-05-05 22:52 | 38.32785 | -2.05486 | 34010 ft | 502 kts | 32° |
| 2026-05-05 22:53 | 38.38305 | -2.00012 | 33996 ft | 502 kts | 32° |
| 2026-05-05 22:53 | 38.43800 | -1.94515 | 33998 ft | 502 kts | 32° |
| 2026-05-05 22:54 | 38.49339 | -1.88957 | 33991 ft | 503 kts | 32° |
| 2026-05-05 22:54 | 38.54810 | -1.83455 | 33995 ft | 504 kts | 32° |
| 2026-05-05 22:55 | 38.60363 | -1.77860 | 33991 ft | 505 kts | 32° |
| 2026-05-05 22:55 | 38.65916 | -1.72254 | 33992 ft | 505 kts | 32° |
| 2026-05-05 22:56 | 38.71403 | -1.66702 | 33990 ft | 506 kts | 32° |
| 2026-05-05 22:56 | 38.76957 | -1.61073 | 33995 ft | 506 kts | 32° |
| 2026-05-05 22:57 | 38.82466 | -1.55477 | 33994 ft | 506 kts | 32° |
| 2026-05-05 22:57 | 38.87954 | -1.49890 | 33995 ft | 506 kts | 32° |
| 2026-05-05 22:58 | 38.93475 | -1.44260 | 33991 ft | 506 kts | 32° |
| 2026-05-05 22:58 | 38.98963 | -1.38651 | 33991 ft | 506 kts | 32° |
| 2026-05-05 22:59 | 39.04320 | -1.33164 | 33989 ft | 506 kts | 32° |
| 2026-05-05 22:59 | 39.09808 | -1.27533 | 33987 ft | 505 kts | 32° |
| 2026-05-05 23:00 | 39.17201 | -1.19932 | 33980 ft | 505 kts | 32° |
| 2026-05-05 23:00 | 39.22401 | -1.14567 | 33958 ft | 505 kts | 32° |
| 2026-05-05 23:01 | 39.27582 | -1.09216 | 34121 ft | 505 kts | 33° |
| 2026-05-05 23:01 | 39.30431 | -1.06290 | 33958 ft | 505 kts | 32° |
| 2026-05-05 23:01 | 39.33193 | -1.03426 | 34001 ft | 504 kts | 32° |
| 2026-05-05 23:02 | 39.38660 | -0.97744 | 33984 ft | 505 kts | 32° |
| 2026-05-05 23:02 | 39.44111 | -0.92076 | 33989 ft | 505 kts | 32° |
| 2026-05-05 23:03 | 39.49575 | -0.86385 | 33983 ft | 505 kts | 32° |
| 2026-05-05 23:03 | 39.54976 | -0.80743 | 33982 ft | 504 kts | 32° |
| 2026-05-05 23:04 | 39.60513 | -0.74956 | 33973 ft | 505 kts | 32° |
| 2026-05-05 23:04 | 39.65919 | -0.69294 | 33978 ft | 505 kts | 33° |
| 2026-05-05 23:05 | 39.71391 | -0.63546 | 33970 ft | 505 kts | 33° |
| 2026-05-05 23:05 | 39.76893 | -0.57755 | 33979 ft | 505 kts | 33° |
| 2026-05-05 23:06 | 39.82459 | -0.51883 | 33975 ft | 506 kts | 33° |
| 2026-05-05 23:06 | 39.87955 | -0.46074 | 33983 ft | 506 kts | 33° |
| 2026-05-05 23:07 | 39.90691 | -0.43180 | 33844 ft | 506 kts | 33° |
| 2026-05-05 23:07 | 39.93421 | -0.40287 | 33574 ft | 505 kts | 33° |
| 2026-05-05 23:07 | 39.96140 | -0.37403 | 33311 ft | 505 kts | 34° |
| 2026-05-05 23:07 | 39.98861 | -0.34515 | 33036 ft | 506 kts | 34° |
| 2026-05-05 23:08 | 40.01593 | -0.31610 | 32787 ft | 505 kts | 34° |
| 2026-05-05 23:08 | 40.04314 | -0.28716 | 32539 ft | 506 kts | 34° |
| 2026-05-05 23:08 | 40.07048 | -0.25804 | 32276 ft | 507 kts | 34° |
| 2026-05-05 23:08 | 40.09785 | -0.22886 | 32025 ft | 507 kts | 34° |
| 2026-05-05 23:09 | 40.12511 | -0.19974 | 31781 ft | 507 kts | 34° |
| 2026-05-05 23:09 | 40.15238 | -0.17060 | 31526 ft | 507 kts | 34° |
| 2026-05-05 23:09 | 40.17973 | -0.14134 | 31278 ft | 508 kts | 34° |
| 2026-05-05 23:09 | 40.20710 | -0.11203 | 30762 ft | 510 kts | 35° |
| 2026-05-05 23:10 | 40.23451 | -0.08264 | 30157 ft | 508 kts | 35° |
| 2026-05-05 23:10 | 40.26167 | -0.05345 | 29621 ft | 501 kts | 35° |
| 2026-05-05 23:10 | 40.28831 | -0.02477 | 29110 ft | 493 kts | 35° |
| 2026-05-05 23:10 | 40.31464 | 0.00358 | 28596 ft | 485 kts | 35° |
| 2026-05-05 23:11 | 40.34047 | 0.03143 | 28105 ft | 477 kts | 35° |
| 2026-05-05 23:11 | 40.36626 | 0.05924 | 27587 ft | 469 kts | 35° |
| 2026-05-05 23:11 | 40.39095 | 0.08588 | 27107 ft | 462 kts | 35° |
| 2026-05-05 23:11 | 40.41554 | 0.11244 | 26628 ft | 456 kts | 36° |
| 2026-05-05 23:12 | 40.43988 | 0.13875 | 26156 ft | 449 kts | 36° |
| 2026-05-05 23:12 | 40.46380 | 0.16465 | 25691 ft | 443 kts | 36° |
| 2026-05-05 23:12 | 40.48749 | 0.19029 | 25225 ft | 439 kts | 36° |
| 2026-05-05 23:12 | 40.51102 | 0.21577 | 24761 ft | 438 kts | 36° |
| 2026-05-05 23:13 | 40.53428 | 0.24138 | 24294 ft | 436 kts | 40° |
| 2026-05-05 23:13 | 40.55403 | 0.27181 | 23558 ft | 443 kts | 57° |
| 2026-05-05 23:13 | 40.56719 | 0.30870 | 22930 ft | 452 kts | 73° |
| 2026-05-05 23:13 | 40.57653 | 0.34897 | 22625 ft | 455 kts | 73° |
| 2026-05-05 23:14 | 40.58581 | 0.38868 | 22286 ft | 452 kts | 73° |
| 2026-05-05 23:14 | 40.59505 | 0.42790 | 21803 ft | 447 kts | 73° |
| 2026-05-05 23:14 | 40.60421 | 0.46667 | 21320 ft | 440 kts | 73° |
| 2026-05-05 23:14 | 40.61317 | 0.50466 | 20840 ft | 433 kts | 73° |
| 2026-05-05 23:15 | 40.62202 | 0.54224 | 20371 ft | 426 kts | 73° |
| 2026-05-05 23:15 | 40.63072 | 0.57927 | 20047 ft | 425 kts | 73° |
| 2026-05-05 23:15 | 40.63951 | 0.61673 | 19800 ft | 431 kts | 73° |
| 2026-05-05 23:15 | 40.64829 | 0.65422 | 19558 ft | 425 kts | 73° |
| 2026-05-05 23:16 | 40.65707 | 0.69177 | 19104 ft | 420 kts | 73° |
| 2026-05-05 23:16 | 40.66562 | 0.72839 | 18569 ft | 416 kts | 73° |
| 2026-05-05 23:16 | 40.67406 | 0.76459 | 18008 ft | 412 kts | 73° |
| 2026-05-05 23:16 | 40.68241 | 0.80045 | 17418 ft | 407 kts | 73° |
| 2026-05-05 23:17 | 40.69064 | 0.83590 | 16822 ft | 403 kts | 73° |
| 2026-05-05 23:17 | 40.69878 | 0.87101 | 16237 ft | 399 kts | 73° |
| 2026-05-05 23:17 | 40.70683 | 0.90581 | 15683 ft | 395 kts | 73° |
| 2026-05-05 23:17 | 40.71479 | 0.94024 | 15125 ft | 391 kts | 73° |
| 2026-05-05 23:18 | 40.72267 | 0.97437 | 14572 ft | 387 kts | 73° |
| 2026-05-05 23:18 | 40.73034 | 1.00770 | 14097 ft | 382 kts | 73° |
| 2026-05-05 23:18 | 40.73799 | 1.04056 | 13920 ft | 367 kts | 70° |
| 2026-05-05 23:18 | 40.74860 | 1.07035 | 13783 ft | 352 kts | 62° |
| 2026-05-05 23:19 | 40.75962 | 1.09843 | 13640 ft | 338 kts | 61° |
| 2026-05-05 23:19 | 40.77028 | 1.12558 | 13333 ft | 330 kts | 61° |
| 2026-05-05 23:19 | 40.77737 | 1.14365 | 13044 ft | 328 kts | 61° |
| 2026-05-05 23:19 | 40.79122 | 1.17897 | 12472 ft | 325 kts | 61° |
| 2026-05-05 23:20 | 40.80153 | 1.20534 | 12045 ft | 322 kts | 61° |
| 2026-05-05 23:20 | 40.81174 | 1.23147 | 11634 ft | 319 kts | 61° |
| 2026-05-05 23:20 | 40.81858 | 1.24899 | 11358 ft | 317 kts | 61° |
| 2026-05-05 23:20 | 40.82864 | 1.27479 | 10944 ft | 315 kts | 61° |
| 2026-05-05 23:21 | 40.83862 | 1.30040 | 10559 ft | 312 kts | 61° |
| 2026-05-05 23:21 | 40.84852 | 1.32582 | 10159 ft | 310 kts | 61° |
| 2026-05-05 23:21 | 40.85830 | 1.35097 | 9765 ft | 307 kts | 61° |
| 2026-05-05 23:21 | 40.86802 | 1.37598 | 9339 ft | 304 kts | 61° |
| 2026-05-05 23:22 | 40.87766 | 1.40080 | 8893 ft | 303 kts | 61° |
| 2026-05-05 23:22 | 40.88729 | 1.42564 | 8386 ft | 304 kts | 61° |
| 2026-05-05 23:22 | 40.89702 | 1.45073 | 7952 ft | 302 kts | 61° |
| 2026-05-05 23:22 | 40.90654 | 1.47529 | 7531 ft | 300 kts | 61° |
| 2026-05-05 23:23 | 40.91599 | 1.49973 | 7143 ft | 296 kts | 61° |
| 2026-05-05 23:23 | 40.92523 | 1.52364 | 6990 ft | 289 kts | 61° |
| 2026-05-05 23:23 | 40.93440 | 1.54737 | 6944 ft | 291 kts | 61° |
| 2026-05-05 23:23 | 40.94360 | 1.57120 | 6934 ft | 291 kts | 61° |
| 2026-05-05 23:24 | 40.95282 | 1.59508 | 6938 ft | 291 kts | 61° |
| 2026-05-05 23:24 | 40.96181 | 1.61839 | 6943 ft | 277 kts | 61° |
| 2026-05-05 23:24 | 40.97028 | 1.64046 | 6934 ft | 261 kts | 61° |
| 2026-05-05 23:24 | 40.97847 | 1.66178 | 6937 ft | 263 kts | 61° |
| 2026-05-05 23:25 | 40.98677 | 1.68333 | 6936 ft | 262 kts | 61° |
| 2026-05-05 23:25 | 40.99502 | 1.70477 | 6940 ft | 261 kts | 61° |
| 2026-05-05 23:25 | 41.00327 | 1.72623 | 6934 ft | 261 kts | 61° |
| 2026-05-05 23:25 | 41.01142 | 1.74748 | 6835 ft | 258 kts | 61° |
| 2026-05-05 23:26 | 41.01953 | 1.76863 | 6551 ft | 257 kts | 61° |
| 2026-05-05 23:26 | 41.02761 | 1.78971 | 6217 ft | 257 kts | 61° |
| 2026-05-05 23:26 | 41.03566 | 1.81075 | 5896 ft | 255 kts | 61° |
| 2026-05-05 23:26 | 41.04367 | 1.83171 | 5488 ft | 256 kts | 61° |
| 2026-05-05 23:27 | 41.05184 | 1.85307 | 4954 ft | 264 kts | 61° |
| 2026-05-05 23:27 | 41.06024 | 1.87502 | 4406 ft | 270 kts | 61° |
| 2026-05-05 23:27 | 41.06882 | 1.89747 | 3788 ft | 278 kts | 61° |
| 2026-05-05 23:27 | 41.07739 | 1.91997 | 3502 ft | 267 kts | 61° |
| 2026-05-05 23:28 | 41.08540 | 1.94104 | 3335 ft | 248 kts | 61° |
| 2026-05-05 23:28 | 41.09298 | 1.96105 | 3178 ft | 232 kts | 61° |
| 2026-05-05 23:28 | 41.09999 | 1.97951 | 2996 ft | 218 kts | 60° |
| 2026-05-05 23:28 | 41.10794 | 1.99549 | 2855 ft | 197 kts | 42° |
| 2026-05-05 23:29 | 41.11812 | 2.00572 | 2749 ft | 171 kts | 25° |
| 2026-05-05 23:29 | 41.12797 | 2.01183 | 2635 ft | 153 kts | 17° |
| 2026-05-05 23:29 | 41.13789 | 2.01663 | 2377 ft | 149 kts | 13° |
| 2026-05-05 23:29 | 41.14769 | 2.02103 | 2085 ft | 148 kts | 13° |
| 2026-05-05 23:30 | 41.15742 | 2.02546 | 1941 ft | 148 kts | 13° |
| 2026-05-05 23:30 | 41.16728 | 2.02992 | 1991 ft | 151 kts | 14° |
| 2026-05-05 23:30 | 41.17714 | 2.03444 | 1992 ft | 150 kts | 13° |
| 2026-05-05 23:30 | 41.18702 | 2.03894 | 1995 ft | 150 kts | 13° |
| 2026-05-05 23:31 | 41.19694 | 2.04343 | 1903 ft | 151 kts | 14° |
| 2026-05-05 23:31 | 41.20686 | 2.04796 | 1703 ft | 149 kts | 14° |
| 2026-05-05 23:31 | 41.21671 | 2.05244 | 1493 ft | 148 kts | 14° |
| 2026-05-05 23:31 | 41.22652 | 2.05691 | 1301 ft | 148 kts | 14° |
| 2026-05-05 23:32 | 41.23632 | 2.06136 | 1099 ft | 148 kts | 15° |
| 2026-05-05 23:32 | 41.24434 | 2.06502 | 940 ft | 147 kts | 15° |
| 2026-05-05 23:32 | 41.25320 | 2.06905 | 757 ft | 144 kts | 16° |
| 2026-05-05 23:32 | 41.26260 | 2.07327 | 527 ft | 141 kts | 17° |
| 2026-05-05 23:33 | 41.27173 | 2.07742 | 371 ft | 139 kts | 17° |
| 2026-05-05 23:33 | 41.28094 | 2.08163 | 184 ft | 138 kts | 17° |
| 2026-05-05 23:33 | 41.28999 | 2.08589 | 46 ft | 138 kts | 16° |
| 2026-05-05 23:33 | 41.29854 | 2.08967 | 7 ft | 108 kts | 19° |
| 2026-05-05 23:34 | 41.30198 | 2.09123 | 3 ft | 32 kts | 20° |
| 2026-05-05 23:34 | 41.30413 | 2.09214 | 6 ft | 7 kts | 358° |
| 2026-05-05 23:34 | 41.30426 | 2.09219 | 6 ft | 4 kts | 15° |
| 2026-05-05 23:34 | 41.30562 | 2.09272 | 8 ft | 28 kts | 1° |
| 2026-05-05 23:35 | 41.30667 | 2.09183 | 4 ft | 0 kts | 314° |
| 2026-05-05 23:36 | 41.30672 | 2.09175 | 4 ft | 10 kts | 314° |
| 2026-05-05 23:36 | 41.30655 | 2.09079 | 3 ft | 17 kts | 201° |
| 2026-05-05 23:36 | 41.30514 | 2.09014 | 3 ft | 26 kts | 200° |
| 2026-05-05 23:36 | 41.30323 | 2.08922 | 3 ft | 33 kts | 200° |
| 2026-05-05 23:37 | 41.30105 | 2.08790 | 5 ft | 35 kts | 216° |
| 2026-05-05 23:37 | 41.29948 | 2.08546 | 7 ft | 35 kts | 244° |
| 2026-05-05 23:37 | 41.29804 | 2.08286 | 5 ft | 36 kts | 220° |
| 2026-05-05 23:37 | 41.29605 | 2.08090 | 3 ft | 32 kts | 230° |
| 2026-05-05 23:38 | 41.29511 | 2.07943 | 3 ft | 13 kts | 159° |
| 2026-05-05 23:38 | 41.29413 | 2.08006 | 3 ft | 16 kts | 153° |
| 2026-05-05 23:38 | 41.29274 | 2.08083 | 3 ft | 16 kts | 180° |
| 2026-05-05 23:38 | 41.29245 | 2.08096 | 3 ft | 10 kts | 156° |
| 2026-05-05 23:39 | 41.29210 | 2.08118 | 3 ft | 0 kts | 154° |
| 2026-05-05 23:39 | 41.29207 | 2.08120 | 3 ft | 0 kts | 154° |